createdAt,value
2019-03-27T00:03:20.641Z,10.00
2019-03-27T00:08:45.816Z,10.30
2019-03-27T00:14:10.893Z,10.10
2019-03-27T00:19:35.503Z,9.80
2019-03-27T00:25:00.335Z,9.70
2019-03-27T00:30:25.252Z,9.40
2019-03-27T00:35:50.383Z,9.30
2019-03-27T00:41:15.532Z,9.00
2019-03-27T00:46:40.993Z,8.90
2019-03-27T00:52:06.159Z,9.10
2019-03-27T00:57:31.087Z,9.10
2019-03-27T01:02:55.475Z,8.90
2019-03-27T01:08:20.330Z,9.00
2019-03-27T01:13:45.493Z,9.30
2019-03-27T01:19:10.957Z,9.20
2019-03-27T01:24:36.379Z,9.20
2019-03-27T01:30:01.283Z,9.30
2019-03-27T01:35:26.367Z,9.20
2019-03-27T01:40:51.076Z,9.10
2019-03-27T01:46:16.394Z,9.50
2019-03-27T01:51:41.538Z,9.40
2019-03-27T01:57:07.555Z,8.90
2019-03-27T02:02:32.027Z,8.70
2019-03-27T02:07:56.675Z,8.70
2019-03-27T02:13:21.734Z,8.50
2019-03-27T02:18:46.463Z,8.60
2019-03-27T02:24:12.030Z,8.40
2019-03-27T02:29:36.905Z,8.30
2019-03-27T02:35:01.488Z,8.20
2019-03-27T02:40:26.563Z,8.00
2019-03-27T02:45:51.584Z,8.20
2019-03-27T02:51:16.932Z,8.10
2019-03-27T02:56:41.625Z,8.20
2019-03-27T03:02:06.526Z,8.30
2019-03-27T03:07:31.855Z,8.50
2019-03-27T03:12:57.212Z,8.50
2019-03-27T03:18:22.172Z,8.40
2019-03-27T03:23:47.159Z,8.20
2019-03-27T03:29:12.439Z,8.40
2019-03-27T03:34:37.620Z,8.70
2019-03-27T03:40:02.266Z,8.70
2019-03-27T03:45:27.122Z,8.20
2019-03-27T03:50:53.830Z,8.00
2019-03-27T03:56:19.612Z,8.40
2019-03-27T04:01:46.138Z,8.60
2019-03-27T04:07:11.067Z,8.50
2019-03-27T04:12:36.977Z,8.40
2019-03-27T04:18:02.054Z,8.10
2019-03-27T04:23:26.757Z,8.20
2019-03-27T04:28:51.595Z,8.10
2019-03-27T04:34:16.363Z,7.80
2019-03-27T04:39:41.603Z,7.70
2019-03-27T04:45:07.107Z,7.50
2019-03-27T04:50:31.618Z,7.60
2019-03-27T04:55:56.870Z,7.70
2019-03-27T05:01:21.986Z,7.80
2019-03-27T05:06:47.020Z,7.50
2019-03-27T05:12:12.183Z,7.70
2019-03-27T05:17:45.612Z,7.80
2019-03-27T05:23:03.455Z,7.90
2019-03-27T05:28:28.521Z,8.10
2019-03-27T05:33:53.598Z,8.30
2019-03-27T05:39:18.006Z,8.40
2019-03-27T05:44:42.538Z,8.40
2019-03-27T05:50:08.693Z,8.60
2019-03-27T05:55:33.340Z,8.40
2019-03-27T06:00:58.577Z,8.20
2019-03-27T06:06:23.916Z,8.10
2019-03-27T06:11:49.105Z,8.10
2019-03-27T06:17:13.913Z,8.20
2019-03-27T06:22:38.915Z,8.50
2019-03-27T06:28:04.322Z,8.80
2019-03-27T06:33:29.575Z,9.00
2019-03-27T06:38:55.034Z,9.00
2019-03-27T06:44:20.280Z,9.10
2019-03-27T06:49:45.708Z,9.30
2019-03-27T06:55:11.223Z,9.70
2019-03-27T07:00:37.462Z,9.90
2019-03-27T07:06:02.143Z,10.10
2019-03-27T07:11:27.063Z,10.40
2019-03-27T07:16:51.949Z,10.60
2019-03-27T07:22:16.664Z,10.90
2019-03-27T07:27:41.522Z,11.00
2019-03-27T07:33:06.690Z,11.30
2019-03-27T07:38:31.671Z,11.70
2019-03-27T07:43:56.951Z,11.90
2019-03-27T07:49:21.999Z,12.20
2019-03-27T07:54:47.109Z,12.30
2019-03-27T08:00:15.467Z,12.50
2019-03-27T08:05:41.795Z,12.60
2019-03-27T08:11:06.337Z,12.80
2019-03-27T08:16:31.368Z,13.10
2019-03-27T08:21:56.420Z,13.30
2019-03-27T08:27:21.490Z,13.70
2019-03-27T08:32:46.337Z,13.90
2019-03-27T08:38:11.260Z,14.20
2019-03-27T08:43:36.096Z,14.60
2019-03-27T08:49:01.370Z,14.60
2019-03-27T08:54:26.418Z,15.00
2019-03-27T08:59:51.745Z,15.30
2019-03-27T09:05:16.756Z,15.50
2019-03-27T09:10:41.954Z,15.60
2019-03-27T09:16:07.047Z,15.60
2019-03-27T09:21:31.695Z,15.80
2019-03-27T09:26:56.815Z,15.80
2019-03-27T09:32:22.240Z,15.90
2019-03-27T09:37:47.052Z,16.00
2019-03-27T09:43:12.081Z,16.30
2019-03-27T09:48:37.068Z,16.60
2019-03-27T09:54:02.389Z,16.70
2019-03-27T09:59:27.260Z,17.00
2019-03-27T10:04:55.808Z,17.10
2019-03-27T10:10:19.188Z,17.40
2019-03-27T10:15:44.099Z,17.60
2019-03-27T10:21:08.866Z,17.50
2019-03-27T10:26:34.608Z,17.70
2019-03-27T10:31:59.186Z,17.70
2019-03-27T10:37:24.557Z,17.80
2019-03-27T10:42:49.162Z,17.10
2019-03-27T10:48:14.260Z,17.60
2019-03-27T10:53:38.813Z,17.60
2019-03-27T10:59:04.210Z,18.10
2019-03-27T11:04:30.735Z,18.00
2019-03-27T11:09:55.645Z,18.80
2019-03-27T11:15:21.159Z,19.10
2019-03-27T11:20:45.877Z,20.00
2019-03-27T11:26:10.998Z,19.90
2019-03-27T11:31:35.363Z,20.10
2019-03-27T11:37:00.210Z,20.00
2019-03-27T11:42:25.658Z,19.60
2019-03-27T11:47:51.208Z,20.60
2019-03-27T11:53:16.362Z,20.90
2019-03-27T11:58:41.214Z,20.90
2019-03-27T12:04:06.151Z,20.50
2019-03-27T12:09:30.681Z,20.50
2019-03-27T12:14:56.306Z,21.10
2019-03-27T12:20:21.976Z,21.20
2019-03-27T12:25:47.244Z,21.00
2019-03-27T12:31:12.517Z,20.80
2019-03-27T12:36:37.556Z,21.00
2019-03-27T12:42:02.936Z,21.00
2019-03-27T12:47:28.376Z,21.30
2019-03-27T12:52:53.274Z,21.30
2019-03-27T12:58:18.102Z,21.40
2019-03-27T13:03:44.505Z,21.40
2019-03-27T13:09:09.295Z,21.20
2019-03-27T13:14:34.613Z,21.10
2019-03-27T13:19:59.464Z,21.50
2019-03-27T13:25:25.034Z,21.40
2019-03-27T13:30:50.489Z,22.30
2019-03-27T13:36:15.362Z,22.40
2019-03-27T13:41:40.810Z,22.40
2019-03-27T13:47:06.306Z,22.60
2019-03-27T13:52:31.396Z,22.70
2019-03-27T13:57:56.638Z,22.90
2019-03-27T14:03:22.310Z,23.70
2019-03-27T14:08:47.602Z,24.10
2019-03-27T14:14:12.731Z,23.70
2019-03-27T14:19:38.279Z,23.70
2019-03-27T14:25:03.329Z,23.90
2019-03-27T14:30:57.829Z,24.50
2019-03-27T14:36:22.147Z,24.00
2019-03-27T14:41:46.819Z,23.10
2019-03-27T14:47:11.800Z,23.60
2019-03-27T14:52:36.826Z,23.60
2019-03-27T14:58:02.108Z,24.00
2019-03-27T15:03:27.014Z,24.30
2019-03-27T15:08:51.583Z,23.90
2019-03-27T15:14:16.777Z,23.40
2019-03-27T15:19:41.925Z,23.40
2019-03-27T15:25:07.374Z,23.60
2019-03-27T15:30:32.292Z,23.30
2019-03-27T15:35:57.477Z,22.80
2019-03-27T15:41:22.954Z,23.20
2019-03-27T15:46:47.740Z,22.50
2019-03-27T15:52:13.039Z,22.80
2019-03-27T15:57:38.129Z,22.80
2019-03-27T16:03:03.000Z,22.20
2019-03-27T16:08:28.348Z,22.00
2019-03-27T16:13:53.045Z,22.10
2019-03-27T16:19:17.903Z,21.20
2019-03-27T16:24:42.995Z,20.00
2019-03-27T16:30:08.298Z,19.10
2019-03-27T16:35:33.394Z,18.70
2019-03-27T16:40:59.040Z,18.40
2019-03-27T16:46:23.591Z,18.00
2019-03-27T16:51:49.683Z,18.30
2019-03-27T16:57:15.161Z,18.30
2019-03-27T17:02:40.712Z,18.10
2019-03-27T17:08:06.571Z,17.90
2019-03-27T17:13:31.568Z,18.00
2019-03-27T17:18:56.814Z,17.80
2019-03-27T17:24:22.359Z,17.40
2019-03-27T17:29:47.828Z,16.90
2019-03-27T17:35:12.605Z,16.60
2019-03-27T17:40:37.685Z,16.70
2019-03-27T17:46:02.784Z,16.10
2019-03-27T17:51:27.507Z,15.90
2019-03-27T17:56:52.510Z,15.80
2019-03-27T18:02:17.339Z,15.50
2019-03-27T18:07:42.607Z,15.30
2019-03-27T18:13:07.875Z,15.10
2019-03-27T18:18:35.800Z,15.00
2019-03-27T18:24:01.488Z,14.80
2019-03-27T18:29:26.132Z,14.70
2019-03-27T18:34:51.486Z,14.40
2019-03-27T18:40:16.785Z,14.10
2019-03-27T18:45:41.663Z,14.00
2019-03-27T18:51:07.492Z,13.90
2019-03-27T18:56:32.371Z,13.70
2019-03-27T19:01:57.843Z,13.20
2019-03-27T19:07:23.304Z,13.00
2019-03-27T19:12:48.299Z,12.90
2019-03-27T19:18:13.303Z,12.80
2019-03-27T19:23:38.443Z,12.80
2019-03-27T19:29:03.849Z,12.70
2019-03-27T19:34:28.978Z,12.60
2019-03-27T19:39:54.201Z,12.40
2019-03-27T19:45:19.551Z,12.20
2019-03-27T19:50:44.658Z,12.10
2019-03-27T19:56:10.045Z,12.10
2019-03-27T20:01:35.310Z,12.10
2019-03-27T20:07:00.902Z,12.10
2019-03-27T20:12:26.049Z,12.00
2019-03-27T20:17:50.967Z,11.80
2019-03-27T20:23:16.143Z,11.90
2019-03-27T20:28:41.060Z,11.90
2019-03-27T20:34:06.462Z,12.00
2019-03-27T20:39:31.634Z,12.10
2019-03-27T20:44:56.571Z,12.00
2019-03-27T20:50:21.306Z,12.00
2019-03-27T20:55:46.891Z,12.00
2019-03-27T21:01:12.093Z,11.80
2019-03-27T21:06:36.882Z,11.60
2019-03-27T21:12:01.904Z,11.30
2019-03-27T21:17:26.909Z,11.60
2019-03-27T21:22:52.903Z,12.00
2019-03-27T21:28:18.111Z,12.20
2019-03-27T21:33:43.915Z,12.20
2019-03-27T21:39:10.192Z,12.20
2019-03-27T21:44:35.647Z,12.20
2019-03-27T21:50:00.501Z,12.40
2019-03-27T21:55:25.444Z,12.40
2019-03-27T22:00:50.904Z,12.40
2019-03-27T22:06:16.510Z,12.40
2019-03-27T22:11:42.001Z,12.20
2019-03-27T22:17:06.927Z,12.20
2019-03-27T22:22:31.678Z,12.20
2019-03-27T22:27:56.856Z,12.40
2019-03-27T22:33:21.868Z,12.50
2019-03-27T22:38:47.073Z,12.70
2019-03-27T22:44:12.575Z,12.50
2019-03-27T22:49:37.862Z,12.60
2019-03-27T22:55:03.487Z,12.20
2019-03-27T23:00:40.174Z,12.00
2019-03-27T23:06:05.051Z,11.50
2019-03-27T23:11:29.635Z,11.20
2019-03-27T23:16:54.813Z,11.20
2019-03-27T23:22:19.848Z,11.30
2019-03-27T23:27:45.084Z,11.50
2019-03-27T23:33:10.220Z,11.50
2019-03-27T23:38:35.199Z,11.80
2019-03-27T23:44:00.122Z,11.80
2019-03-27T23:49:24.918Z,11.50
2019-03-27T23:54:49.494Z,11.40
